sensor_id;sensor_type;location;lat;lon;timestamp;P1;durP1;ratioP1;P2;durP2;ratioP2
72926;SDS011;61071;51.618;19.388;2022-07-03T00:00:42;11.18;;;5.43;;
72926;SDS011;61071;51.618;19.388;2022-07-03T00:03:08;9.27;;;6.22;;
72926;SDS011;61071;51.618;19.388;2022-07-03T00:05:34;8.13;;;5.47;;
72926;SDS011;61071;51.618;19.388;2022-07-03T00:08:02;7.35;;;5.55;;
72926;SDS011;61071;51.618;19.388;2022-07-03T00:10:29;6.57;;;5.35;;
72926;SDS011;61071;51.618;19.388;2022-07-03T00:12:55;12.27;;;6.85;;
72926;SDS011;61071;51.618;19.388;2022-07-03T00:15:21;10.85;;;6.57;;
72926;SDS011;61071;51.618;19.388;2022-07-03T00:17:47;10.70;;;6.20;;
72926;SDS011;61071;51.618;19.388;2022-07-03T00:20:12;11.68;;;5.45;;
72926;SDS011;61071;51.618;19.388;2022-07-03T00:22:42;14.75;;;7.53;;
72926;SDS011;61071;51.618;19.388;2022-07-03T00:25:11;10.90;;;7.45;;
72926;SDS011;61071;51.618;19.388;2022-07-03T00:27:38;10.98;;;6.47;;
72926;SDS011;61071;51.618;19.388;2022-07-03T00:30:06;14.32;;;6.85;;
72926;SDS011;61071;51.618;19.388;2022-07-03T00:32:33;17.13;;;6.78;;
72926;SDS011;61071;51.618;19.388;2022-07-03T00:35:03;12.07;;;5.60;;
72926;SDS011;61071;51.618;19.388;2022-07-03T00:37:29;21.75;;;6.30;;
72926;SDS011;61071;51.618;19.388;2022-07-03T00:39:55;15.80;;;6.80;;
72926;SDS011;61071;51.618;19.388;2022-07-03T00:42:22;8.88;;;5.88;;
72926;SDS011;61071;51.618;19.388;2022-07-03T00:44:52;12.52;;;7.05;;
72926;SDS011;61071;51.618;19.388;2022-07-03T00:47:21;10.90;;;6.57;;
72926;SDS011;61071;51.618;19.388;2022-07-03T00:49:50;11.27;;;5.90;;
72926;SDS011;61071;51.618;19.388;2022-07-03T00:52:20;9.75;;;6.72;;
72926;SDS011;61071;51.618;19.388;2022-07-03T00:54:52;10.32;;;6.28;;
72926;SDS011;61071;51.618;19.388;2022-07-03T00:57:22;10.55;;;5.97;;
72926;SDS011;61071;51.618;19.388;2022-07-03T00:59:50;9.25;;;6.10;;
72926;SDS011;61071;51.618;19.388;2022-07-03T01:16:38;16.60;;;7.03;;
72926;SDS011;61071;51.618;19.388;2022-07-03T01:27:47;11.02;;;5.78;;
72926;SDS011;61071;51.618;19.388;2022-07-03T01:30:27;16.33;;;6.40;;
72926;SDS011;61071;51.618;19.388;2022-07-03T01:33:21;19.17;;;6.10;;
72926;SDS011;61071;51.618;19.388;2022-07-03T01:38:27;17.27;;;7.15;;
72926;SDS011;61071;51.618;19.388;2022-07-03T01:40:55;11.38;;;6.35;;
72926;SDS011;61071;51.618;19.388;2022-07-03T01:43:25;18.25;;;6.72;;
72926;SDS011;61071;51.618;19.388;2022-07-03T01:45:56;30.27;;;7.90;;
72926;SDS011;61071;51.618;19.388;2022-07-03T01:48:24;21.02;;;7.50;;
72926;SDS011;61071;51.618;19.388;2022-07-03T01:50:51;10.15;;;6.82;;
72926;SDS011;61071;51.618;19.388;2022-07-03T01:53:19;22.85;;;7.85;;
72926;SDS011;61071;51.618;19.388;2022-07-03T01:55:45;26.08;;;8.70;;
72926;SDS011;61071;51.618;19.388;2022-07-03T01:58:13;16.83;;;6.60;;
72926;SDS011;61071;51.618;19.388;2022-07-03T02:00:45;17.30;;;7.55;;
72926;SDS011;61071;51.618;19.388;2022-07-03T02:03:29;16.83;;;6.82;;
72926;SDS011;61071;51.618;19.388;2022-07-03T02:06:04;22.40;;;7.38;;
72926;SDS011;61071;51.618;19.388;2022-07-03T02:08:44;26.77;;;8.60;;
72926;SDS011;61071;51.618;19.388;2022-07-03T02:11:27;22.25;;;8.85;;
72926;SDS011;61071;51.618;19.388;2022-07-03T02:14:07;21.88;;;9.18;;
72926;SDS011;61071;51.618;19.388;2022-07-03T02:17:00;17.35;;;7.03;;
72926;SDS011;61071;51.618;19.388;2022-07-03T02:22:37;15.95;;;7.63;;
72926;SDS011;61071;51.618;19.388;2022-07-03T02:27:55;14.52;;;7.15;;
72926;SDS011;61071;51.618;19.388;2022-07-03T02:30:42;18.40;;;8.27;;
72926;SDS011;61071;51.618;19.388;2022-07-03T02:33:13;13.60;;;6.97;;
72926;SDS011;61071;51.618;19.388;2022-07-03T02:35:47;10.07;;;6.78;;
72926;SDS011;61071;51.618;19.388;2022-07-03T02:38:16;19.73;;;8.13;;
72926;SDS011;61071;51.618;19.388;2022-07-03T02:40:53;12.38;;;6.38;;
72926;SDS011;61071;51.618;19.388;2022-07-03T02:43:42;13.80;;;6.40;;
72926;SDS011;61071;51.618;19.388;2022-07-03T02:46:38;30.52;;;8.77;;
72926;SDS011;61071;51.618;19.388;2022-07-03T02:54:59;20.45;;;7.57;;
72926;SDS011;61071;51.618;19.388;2022-07-03T02:57:36;14.40;;;8.43;;
72926;SDS011;61071;51.618;19.388;2022-07-03T03:00:07;18.80;;;7.85;;
72926;SDS011;61071;51.618;19.388;2022-07-03T03:02:52;20.38;;;7.97;;
72926;SDS011;61071;51.618;19.388;2022-07-03T03:05:26;10.85;;;6.40;;
72926;SDS011;61071;51.618;19.388;2022-07-03T03:08:02;18.50;;;7.68;;
72926;SDS011;61071;51.618;19.388;2022-07-03T03:11:08;22.30;;;7.28;;
72926;SDS011;61071;51.618;19.388;2022-07-03T03:13:49;16.03;;;6.03;;
72926;SDS011;61071;51.618;19.388;2022-07-03T03:16:21;25.38;;;6.50;;
72926;SDS011;61071;51.618;19.388;2022-07-03T03:18:47;38.28;;;10.38;;
72926;SDS011;61071;51.618;19.388;2022-07-03T03:21:15;68.82;;;11.63;;
72926;SDS011;61071;51.618;19.388;2022-07-03T03:23:44;23.17;;;7.68;;
72926;SDS011;61071;51.618;19.388;2022-07-03T03:26:19;39.67;;;9.13;;
72926;SDS011;61071;51.618;19.388;2022-07-03T03:28:58;34.80;;;8.20;;
72926;SDS011;61071;51.618;19.388;2022-07-03T03:31:24;39.83;;;9.77;;
72926;SDS011;61071;51.618;19.388;2022-07-03T03:33:52;19.13;;;6.53;;
72926;SDS011;61071;51.618;19.388;2022-07-03T03:36:19;14.80;;;5.45;;
72926;SDS011;61071;51.618;19.388;2022-07-03T03:38:46;14.75;;;6.07;;
72926;SDS011;61071;51.618;19.388;2022-07-03T03:41:13;11.95;;;6.28;;
72926;SDS011;61071;51.618;19.388;2022-07-03T03:43:39;20.10;;;7.15;;
72926;SDS011;61071;51.618;19.388;2022-07-03T03:46:05;24.83;;;7.32;;
72926;SDS011;61071;51.618;19.388;2022-07-03T03:48:33;17.38;;;6.15;;
72926;SDS011;61071;51.618;19.388;2022-07-03T03:51:00;17.50;;;7.63;;
72926;SDS011;61071;51.618;19.388;2022-07-03T03:53:28;23.98;;;8.07;;
72926;SDS011;61071;51.618;19.388;2022-07-03T03:56:01;22.67;;;7.63;;
72926;SDS011;61071;51.618;19.388;2022-07-03T03:58:33;16.85;;;9.05;;
72926;SDS011;61071;51.618;19.388;2022-07-03T04:01:01;19.05;;;8.23;;
72926;SDS011;61071;51.618;19.388;2022-07-03T04:03:29;18.00;;;8.68;;
72926;SDS011;61071;51.618;19.388;2022-07-03T04:05:56;16.98;;;8.73;;
72926;SDS011;61071;51.618;19.388;2022-07-03T04:08:23;11.40;;;7.35;;
72926;SDS011;61071;51.618;19.388;2022-07-03T04:10:50;14.57;;;6.70;;
72926;SDS011;61071;51.618;19.388;2022-07-03T04:13:16;19.77;;;6.75;;
72926;SDS011;61071;51.618;19.388;2022-07-03T04:15:46;12.40;;;6.68;;
72926;SDS011;61071;51.618;19.388;2022-07-03T04:18:13;16.73;;;7.03;;
72926;SDS011;61071;51.618;19.388;2022-07-03T04:20:39;7.88;;;6.57;;
72926;SDS011;61071;51.618;19.388;2022-07-03T04:23:06;12.73;;;7.38;;
72926;SDS011;61071;51.618;19.388;2022-07-03T04:25:31;11.27;;;6.38;;
72926;SDS011;61071;51.618;19.388;2022-07-03T04:27:57;12.65;;;7.35;;
72926;SDS011;61071;51.618;19.388;2022-07-03T04:30:23;9.65;;;6.65;;
72926;SDS011;61071;51.618;19.388;2022-07-03T04:32:50;9.02;;;6.28;;
72926;SDS011;61071;51.618;19.388;2022-07-03T04:35:16;8.82;;;6.72;;
72926;SDS011;61071;51.618;19.388;2022-07-03T04:37:42;8.77;;;6.75;;
72926;SDS011;61071;51.618;19.388;2022-07-03T04:40:09;13.50;;;6.90;;
72926;SDS011;61071;51.618;19.388;2022-07-03T04:42:37;8.60;;;7.10;;
72926;SDS011;61071;51.618;19.388;2022-07-03T04:45:03;10.75;;;6.97;;
72926;SDS011;61071;51.618;19.388;2022-07-03T04:47:29;10.95;;;7.40;;
72926;SDS011;61071;51.618;19.388;2022-07-03T04:49:55;8.85;;;6.65;;
72926;SDS011;61071;51.618;19.388;2022-07-03T04:52:21;9.65;;;7.10;;
72926;SDS011;61071;51.618;19.388;2022-07-03T04:54:47;13.27;;;6.68;;
72926;SDS011;61071;51.618;19.388;2022-07-03T04:57:13;9.48;;;6.35;;
72926;SDS011;61071;51.618;19.388;2022-07-03T04:59:38;10.13;;;6.22;;
72926;SDS011;61071;51.618;19.388;2022-07-03T05:02:04;8.07;;;5.10;;
72926;SDS011;61071;51.618;19.388;2022-07-03T05:04:30;10.93;;;6.50;;
72926;SDS011;61071;51.618;19.388;2022-07-03T05:06:56;7.97;;;5.63;;
72926;SDS011;61071;51.618;19.388;2022-07-03T05:09:22;11.95;;;6.25;;
72926;SDS011;61071;51.618;19.388;2022-07-03T05:11:48;12.43;;;5.30;;
72926;SDS011;61071;51.618;19.388;2022-07-03T05:14:13;7.80;;;6.00;;
72926;SDS011;61071;51.618;19.388;2022-07-03T05:16:39;12.73;;;5.78;;
72926;SDS011;61071;51.618;19.388;2022-07-03T05:19:05;9.68;;;5.65;;
72926;SDS011;61071;51.618;19.388;2022-07-03T05:21:31;9.57;;;6.15;;
72926;SDS011;61071;51.618;19.388;2022-07-03T05:23:57;12.32;;;5.95;;
72926;SDS011;61071;51.618;19.388;2022-07-03T05:26:23;9.38;;;5.20;;
72926;SDS011;61071;51.618;19.388;2022-07-03T05:28:49;6.22;;;4.20;;
72926;SDS011;61071;51.618;19.388;2022-07-03T05:31:16;7.00;;;4.40;;
72926;SDS011;61071;51.618;19.388;2022-07-03T05:33:41;10.65;;;4.32;;
72926;SDS011;61071;51.618;19.388;2022-07-03T05:36:07;5.22;;;3.42;;
72926;SDS011;61071;51.618;19.388;2022-07-03T05:38:33;6.25;;;3.22;;
72926;SDS011;61071;51.618;19.388;2022-07-03T05:41:17;5.30;;;3.38;;
72926;SDS011;61071;51.618;19.388;2022-07-03T05:43:44;3.58;;;3.00;;
72926;SDS011;61071;51.618;19.388;2022-07-03T05:46:10;10.45;;;3.78;;
72926;SDS011;61071;51.618;19.388;2022-07-03T05:48:35;10.35;;;3.72;;
72926;SDS011;61071;51.618;19.388;2022-07-03T05:51:01;6.47;;;3.13;;
72926;SDS011;61071;51.618;19.388;2022-07-03T05:53:28;7.60;;;3.45;;
72926;SDS011;61071;51.618;19.388;2022-07-03T05:55:54;6.05;;;3.83;;
72926;SDS011;61071;51.618;19.388;2022-07-03T05:58:20;5.93;;;2.90;;
72926;SDS011;61071;51.618;19.388;2022-07-03T06:00:45;8.85;;;3.65;;
72926;SDS011;61071;51.618;19.388;2022-07-03T06:03:11;7.88;;;3.45;;
72926;SDS011;61071;51.618;19.388;2022-07-03T06:05:37;8.27;;;2.75;;
72926;SDS011;61071;51.618;19.388;2022-07-03T06:08:03;5.75;;;2.40;;
72926;SDS011;61071;51.618;19.388;2022-07-03T06:10:30;2.58;;;2.00;;
72926;SDS011;61071;51.618;19.388;2022-07-03T06:12:57;5.25;;;1.90;;
72926;SDS011;61071;51.618;19.388;2022-07-03T06:15:22;4.32;;;1.58;;
72926;SDS011;61071;51.618;19.388;2022-07-03T06:17:48;5.13;;;1.60;;
72926;SDS011;61071;51.618;19.388;2022-07-03T06:20:14;4.55;;;1.60;;
72926;SDS011;61071;51.618;19.388;2022-07-03T06:22:40;6.80;;;2.25;;
72926;SDS011;61071;51.618;19.388;2022-07-03T06:25:06;5.65;;;1.63;;
72926;SDS011;61071;51.618;19.388;2022-07-03T06:27:32;4.72;;;1.50;;
72926;SDS011;61071;51.618;19.388;2022-07-03T06:29:59;5.22;;;1.60;;
72926;SDS011;61071;51.618;19.388;2022-07-03T06:32:25;15.50;;;2.03;;
72926;SDS011;61071;51.618;19.388;2022-07-03T06:34:51;5.53;;;1.52;;
72926;SDS011;61071;51.618;19.388;2022-07-03T06:37:17;5.18;;;1.65;;
72926;SDS011;61071;51.618;19.388;2022-07-03T06:39:43;6.72;;;1.80;;
72926;SDS011;61071;51.618;19.388;2022-07-03T06:42:09;5.65;;;1.77;;
72926;SDS011;61071;51.618;19.388;2022-07-03T06:44:35;9.65;;;1.83;;
72926;SDS011;61071;51.618;19.388;2022-07-03T06:47:01;5.25;;;1.85;;
72926;SDS011;61071;51.618;19.388;2022-07-03T06:49:33;4.43;;;1.67;;
72926;SDS011;61071;51.618;19.388;2022-07-03T06:51:59;5.30;;;1.75;;
72926;SDS011;61071;51.618;19.388;2022-07-03T06:54:25;4.97;;;1.92;;
72926;SDS011;61071;51.618;19.388;2022-07-03T06:56:51;7.25;;;1.92;;
72926;SDS011;61071;51.618;19.388;2022-07-03T06:59:17;6.10;;;1.88;;
72926;SDS011;61071;51.618;19.388;2022-07-03T07:01:43;3.30;;;1.50;;
72926;SDS011;61071;51.618;19.388;2022-07-03T07:04:08;6.97;;;1.70;;
72926;SDS011;61071;51.618;19.388;2022-07-03T07:06:34;6.97;;;1.58;;
72926;SDS011;61071;51.618;19.388;2022-07-03T07:09:00;3.83;;;1.52;;
72926;SDS011;61071;51.618;19.388;2022-07-03T07:11:26;4.32;;;1.50;;
72926;SDS011;61071;51.618;19.388;2022-07-03T07:13:52;3.65;;;1.42;;
72926;SDS011;61071;51.618;19.388;2022-07-03T07:16:18;6.53;;;1.60;;
72926;SDS011;61071;51.618;19.388;2022-07-03T07:18:43;3.83;;;1.85;;
72926;SDS011;61071;51.618;19.388;2022-07-03T07:21:09;4.30;;;1.65;;
72926;SDS011;61071;51.618;19.388;2022-07-03T07:23:35;6.35;;;1.63;;
72926;SDS011;61071;51.618;19.388;2022-07-03T07:26:02;1.67;;;1.23;;
72926;SDS011;61071;51.618;19.388;2022-07-03T07:28:28;3.33;;;1.40;;
72926;SDS011;61071;51.618;19.388;2022-07-03T07:30:55;5.72;;;1.60;;
72926;SDS011;61071;51.618;19.388;2022-07-03T07:33:22;7.05;;;1.50;;
72926;SDS011;61071;51.618;19.388;2022-07-03T07:35:48;4.07;;;1.55;;
72926;SDS011;61071;51.618;19.388;2022-07-03T07:38:15;5.63;;;1.70;;
72926;SDS011;61071;51.618;19.388;2022-07-03T07:40:42;2.92;;;1.30;;
72926;SDS011;61071;51.618;19.388;2022-07-03T07:43:08;3.33;;;1.30;;
72926;SDS011;61071;51.618;19.388;2022-07-03T07:45:34;8.25;;;1.35;;
72926;SDS011;61071;51.618;19.388;2022-07-03T07:48:00;3.38;;;1.58;;
72926;SDS011;61071;51.618;19.388;2022-07-03T07:50:26;3.67;;;1.27;;
72926;SDS011;61071;51.618;19.388;2022-07-03T07:52:52;3.55;;;1.30;;
72926;SDS011;61071;51.618;19.388;2022-07-03T07:55:18;5.88;;;1.80;;
72926;SDS011;61071;51.618;19.388;2022-07-03T07:57:45;5.85;;;1.35;;
72926;SDS011;61071;51.618;19.388;2022-07-03T08:00:13;2.65;;;1.50;;
72926;SDS011;61071;51.618;19.388;2022-07-03T08:02:42;2.55;;;1.10;;
72926;SDS011;61071;51.618;19.388;2022-07-03T08:05:28;2.97;;;1.25;;
72926;SDS011;61071;51.618;19.388;2022-07-03T08:10:36;2.90;;;1.30;;
72926;SDS011;61071;51.618;19.388;2022-07-03T08:13:11;0.82;;;0.82;;
72926;SDS011;61071;51.618;19.388;2022-07-03T08:15:38;2.38;;;1.25;;
72926;SDS011;61071;51.618;19.388;2022-07-03T08:18:05;1.67;;;1.00;;
72926;SDS011;61071;51.618;19.388;2022-07-03T08:20:32;3.78;;;1.10;;
72926;SDS011;61071;51.618;19.388;2022-07-03T08:22:58;4.85;;;1.38;;
72926;SDS011;61071;51.618;19.388;2022-07-03T08:25:24;3.95;;;1.48;;
72926;SDS011;61071;51.618;19.388;2022-07-03T08:27:50;4.70;;;1.83;;
72926;SDS011;61071;51.618;19.388;2022-07-03T08:30:16;4.50;;;1.13;;
72926;SDS011;61071;51.618;19.388;2022-07-03T08:32:46;3.13;;;1.10;;
72926;SDS011;61071;51.618;19.388;2022-07-03T08:35:14;6.03;;;1.58;;
72926;SDS011;61071;51.618;19.388;2022-07-03T08:37:40;2.53;;;1.38;;
72926;SDS011;61071;51.618;19.388;2022-07-03T08:40:08;2.97;;;1.13;;
72926;SDS011;61071;51.618;19.388;2022-07-03T08:42:41;4.25;;;1.17;;
72926;SDS011;61071;51.618;19.388;2022-07-03T08:45:15;2.78;;;1.38;;
72926;SDS011;61071;51.618;19.388;2022-07-03T08:47:43;3.95;;;1.00;;
72926;SDS011;61071;51.618;19.388;2022-07-03T08:50:11;3.53;;;1.20;;
72926;SDS011;61071;51.618;19.388;2022-07-03T08:52:40;3.08;;;1.05;;
72926;SDS011;61071;51.618;19.388;2022-07-03T08:55:07;5.82;;;0.90;;
72926;SDS011;61071;51.618;19.388;2022-07-03T08:57:38;3.10;;;0.98;;
72926;SDS011;61071;51.618;19.388;2022-07-03T09:00:06;1.83;;;1.02;;
72926;SDS011;61071;51.618;19.388;2022-07-03T09:02:39;3.50;;;1.02;;
72926;SDS011;61071;51.618;19.388;2022-07-03T09:05:09;3.45;;;1.27;;
72926;SDS011;61071;51.618;19.388;2022-07-03T09:07:36;1.77;;;1.10;;
72926;SDS011;61071;51.618;19.388;2022-07-03T09:10:09;3.30;;;0.70;;
72926;SDS011;61071;51.618;19.388;2022-07-03T09:12:42;1.85;;;1.05;;
72926;SDS011;61071;51.618;19.388;2022-07-03T09:15:13;1.25;;;0.88;;
72926;SDS011;61071;51.618;19.388;2022-07-03T09:17:39;2.88;;;1.02;;
72926;SDS011;61071;51.618;19.388;2022-07-03T09:20:06;4.28;;;1.10;;
72926;SDS011;61071;51.618;19.388;2022-07-03T09:22:34;1.20;;;1.10;;
72926;SDS011;61071;51.618;19.388;2022-07-03T09:27:33;1.50;;;1.00;;
72926;SDS011;61071;51.618;19.388;2022-07-03T09:30:01;4.32;;;1.10;;
72926;SDS011;61071;51.618;19.388;2022-07-03T09:32:43;4.80;;;1.02;;
72926;SDS011;61071;51.618;19.388;2022-07-03T09:37:56;2.03;;;1.33;;
72926;SDS011;61071;51.618;19.388;2022-07-03T09:40:27;2.08;;;0.95;;
72926;SDS011;61071;51.618;19.388;2022-07-03T09:43:26;1.50;;;0.98;;
72926;SDS011;61071;51.618;19.388;2022-07-03T09:45:58;7.00;;;1.10;;
72926;SDS011;61071;51.618;19.388;2022-07-03T09:48:31;1.45;;;1.00;;
72926;SDS011;61071;51.618;19.388;2022-07-03T09:53:58;4.25;;;1.10;;
72926;SDS011;61071;51.618;19.388;2022-07-03T09:56:27;3.08;;;1.20;;
72926;SDS011;61071;51.618;19.388;2022-07-03T09:59:03;2.05;;;0.98;;
72926;SDS011;61071;51.618;19.388;2022-07-03T10:01:36;1.35;;;0.90;;
72926;SDS011;61071;51.618;19.388;2022-07-03T10:06:55;1.67;;;0.93;;
72926;SDS011;61071;51.618;19.388;2022-07-03T10:09:31;2.70;;;1.10;;
72926;SDS011;61071;51.618;19.388;2022-07-03T10:12:00;1.65;;;1.10;;
72926;SDS011;61071;51.618;19.388;2022-07-03T10:14:29;3.85;;;1.25;;
72926;SDS011;61071;51.618;19.388;2022-07-03T10:16:57;5.32;;;1.00;;
72926;SDS011;61071;51.618;19.388;2022-07-03T10:19:28;2.72;;;1.10;;
72926;SDS011;61071;51.618;19.388;2022-07-03T10:22:02;2.22;;;0.90;;
72926;SDS011;61071;51.618;19.388;2022-07-03T10:24:48;4.07;;;0.95;;
72926;SDS011;61071;51.618;19.388;2022-07-03T10:27:15;1.85;;;0.73;;
72926;SDS011;61071;51.618;19.388;2022-07-03T10:29:42;1.25;;;1.00;;
72926;SDS011;61071;51.618;19.388;2022-07-03T10:32:09;4.10;;;1.10;;
72926;SDS011;61071;51.618;19.388;2022-07-03T10:34:37;5.18;;;1.00;;
72926;SDS011;61071;51.618;19.388;2022-07-03T10:37:06;2.05;;;1.00;;
72926;SDS011;61071;51.618;19.388;2022-07-03T10:39:51;1.63;;;0.90;;
72926;SDS011;61071;51.618;19.388;2022-07-03T10:42:58;2.58;;;1.10;;
72926;SDS011;61071;51.618;19.388;2022-07-03T10:46:12;1.77;;;0.95;;
72926;SDS011;61071;51.618;19.388;2022-07-03T10:51:23;6.20;;;0.80;;
72926;SDS011;61071;51.618;19.388;2022-07-03T10:53:49;1.58;;;0.90;;
72926;SDS011;61071;51.618;19.388;2022-07-03T10:56:15;2.90;;;1.02;;
72926;SDS011;61071;51.618;19.388;2022-07-03T10:58:57;2.50;;;1.10;;
72926;SDS011;61071;51.618;19.388;2022-07-03T11:01:30;4.38;;;1.02;;
72926;SDS011;61071;51.618;19.388;2022-07-03T11:04:00;3.35;;;1.48;;
72926;SDS011;61071;51.618;19.388;2022-07-03T11:09:13;3.47;;;1.13;;
72926;SDS011;61071;51.618;19.388;2022-07-03T11:14:26;2.13;;;1.40;;
72926;SDS011;61071;51.618;19.388;2022-07-03T11:19:46;1.00;;;0.90;;
72926;SDS011;61071;51.618;19.388;2022-07-03T11:22:45;2.38;;;1.15;;
72926;SDS011;61071;51.618;19.388;2022-07-03T11:25:21;3.20;;;1.05;;
72926;SDS011;61071;51.618;19.388;2022-07-03T11:27:50;1.65;;;1.20;;
72926;SDS011;61071;51.618;19.388;2022-07-03T11:30:18;3.13;;;1.15;;
72926;SDS011;61071;51.618;19.388;2022-07-03T11:32:50;3.00;;;1.20;;
72926;SDS011;61071;51.618;19.388;2022-07-03T11:38:37;2.75;;;1.10;;
72926;SDS011;61071;51.618;19.388;2022-07-03T11:41:06;3.17;;;1.25;;
72926;SDS011;61071;51.618;19.388;2022-07-03T11:43:34;5.20;;;1.20;;
72926;SDS011;61071;51.618;19.388;2022-07-03T11:46:01;5.25;;;1.10;;
72926;SDS011;61071;51.618;19.388;2022-07-03T11:48:28;1.83;;;1.00;;
72926;SDS011;61071;51.618;19.388;2022-07-03T11:50:59;2.92;;;0.82;;
72926;SDS011;61071;51.618;19.388;2022-07-03T11:53:28;2.67;;;1.02;;
72926;SDS011;61071;51.618;19.388;2022-07-03T11:58:25;3.33;;;1.10;;
72926;SDS011;61071;51.618;19.388;2022-07-03T12:01:08;3.65;;;1.17;;
72926;SDS011;61071;51.618;19.388;2022-07-03T12:03:35;2.15;;;0.98;;
72926;SDS011;61071;51.618;19.388;2022-07-03T12:06:01;1.55;;;1.08;;
72926;SDS011;61071;51.618;19.388;2022-07-03T12:08:32;2.78;;;1.30;;
72926;SDS011;61071;51.618;19.388;2022-07-03T12:11:00;2.72;;;1.10;;
72926;SDS011;61071;51.618;19.388;2022-07-03T12:13:31;2.30;;;1.10;;
72926;SDS011;61071;51.618;19.388;2022-07-03T12:21:22;2.70;;;0.95;;
72926;SDS011;61071;51.618;19.388;2022-07-03T12:23:49;2.95;;;1.15;;
72926;SDS011;61071;51.618;19.388;2022-07-03T12:26:29;1.25;;;0.90;;
72926;SDS011;61071;51.618;19.388;2022-07-03T12:28:59;2.67;;;1.27;;
72926;SDS011;61071;51.618;19.388;2022-07-03T12:31:32;1.50;;;1.10;;
72926;SDS011;61071;51.618;19.388;2022-07-03T12:33:59;3.63;;;1.20;;
72926;SDS011;61071;51.618;19.388;2022-07-03T12:36:27;3.13;;;1.13;;
72926;SDS011;61071;51.618;19.388;2022-07-03T12:38:55;3.80;;;1.35;;
72926;SDS011;61071;51.618;19.388;2022-07-03T12:41:25;4.10;;;1.30;;
72926;SDS011;61071;51.618;19.388;2022-07-03T12:43:52;1.98;;;0.80;;
72926;SDS011;61071;51.618;19.388;2022-07-03T12:46:22;2.15;;;1.20;;
72926;SDS011;61071;51.618;19.388;2022-07-03T12:48:59;2.75;;;1.00;;
72926;SDS011;61071;51.618;19.388;2022-07-03T12:51:40;2.90;;;1.00;;
72926;SDS011;61071;51.618;19.388;2022-07-03T12:54:15;1.17;;;0.90;;
72926;SDS011;61071;51.618;19.388;2022-07-03T13:00:04;2.30;;;1.20;;
72926;SDS011;61071;51.618;19.388;2022-07-03T13:02:35;1.85;;;1.15;;
72926;SDS011;61071;51.618;19.388;2022-07-03T13:05:13;1.65;;;1.00;;
72926;SDS011;61071;51.618;19.388;2022-07-03T13:07:48;2.47;;;0.88;;
72926;SDS011;61071;51.618;19.388;2022-07-03T13:10:19;2.38;;;1.20;;
72926;SDS011;61071;51.618;19.388;2022-07-03T13:12:51;4.85;;;1.17;;
72926;SDS011;61071;51.618;19.388;2022-07-03T13:15:25;2.90;;;1.17;;
72926;SDS011;61071;51.618;19.388;2022-07-03T13:20:25;1.58;;;0.98;;
72926;SDS011;61071;51.618;19.388;2022-07-03T13:22:57;2.13;;;1.13;;
72926;SDS011;61071;51.618;19.388;2022-07-03T13:25:27;2.45;;;1.10;;
72926;SDS011;61071;51.618;19.388;2022-07-03T13:28:07;6.13;;;1.60;;
72926;SDS011;61071;51.618;19.388;2022-07-03T13:30:41;8.15;;;1.75;;
72926;SDS011;61071;51.618;19.388;2022-07-03T13:33:08;3.85;;;1.10;;
72926;SDS011;61071;51.618;19.388;2022-07-03T13:35:34;1.65;;;1.17;;
72926;SDS011;61071;51.618;19.388;2022-07-03T13:38:01;1.88;;;1.15;;
72926;SDS011;61071;51.618;19.388;2022-07-03T13:40:29;4.50;;;1.23;;
72926;SDS011;61071;51.618;19.388;2022-07-03T13:42:55;2.50;;;1.10;;
72926;SDS011;61071;51.618;19.388;2022-07-03T13:45:21;3.45;;;1.20;;
72926;SDS011;61071;51.618;19.388;2022-07-03T13:47:47;1.15;;;1.00;;
72926;SDS011;61071;51.618;19.388;2022-07-03T13:50:13;8.23;;;1.58;;
72926;SDS011;61071;51.618;19.388;2022-07-03T13:52:39;1.42;;;1.00;;
72926;SDS011;61071;51.618;19.388;2022-07-03T13:55:05;1.45;;;1.13;;
72926;SDS011;61071;51.618;19.388;2022-07-03T13:57:31;1.70;;;1.02;;
72926;SDS011;61071;51.618;19.388;2022-07-03T13:59:58;6.65;;;2.80;;
72926;SDS011;61071;51.618;19.388;2022-07-03T14:02:24;3.65;;;1.45;;
72926;SDS011;61071;51.618;19.388;2022-07-03T14:04:50;4.75;;;1.20;;
72926;SDS011;61071;51.618;19.388;2022-07-03T14:07:16;5.05;;;1.13;;
72926;SDS011;61071;51.618;19.388;2022-07-03T14:09:41;2.80;;;1.30;;
72926;SDS011;61071;51.618;19.388;2022-07-03T14:12:07;2.65;;;1.08;;
72926;SDS011;61071;51.618;19.388;2022-07-03T14:14:34;3.88;;;1.20;;
72926;SDS011;61071;51.618;19.388;2022-07-03T14:16:59;3.25;;;1.00;;
72926;SDS011;61071;51.618;19.388;2022-07-03T14:19:25;4.03;;;1.38;;
72926;SDS011;61071;51.618;19.388;2022-07-03T14:21:51;2.45;;;1.25;;
72926;SDS011;61071;51.618;19.388;2022-07-03T14:24:16;7.65;;;1.40;;
72926;SDS011;61071;51.618;19.388;2022-07-03T14:26:42;3.85;;;1.10;;
72926;SDS011;61071;51.618;19.388;2022-07-03T14:29:26;1.33;;;1.08;;
72926;SDS011;61071;51.618;19.388;2022-07-03T14:32:11;2.63;;;1.20;;
72926;SDS011;61071;51.618;19.388;2022-07-03T14:34:55;1.65;;;1.00;;
72926;SDS011;61071;51.618;19.388;2022-07-03T14:37:21;5.20;;;1.30;;
72926;SDS011;61071;51.618;19.388;2022-07-03T14:39:47;1.83;;;0.80;;
72926;SDS011;61071;51.618;19.388;2022-07-03T14:42:14;3.80;;;1.58;;
72926;SDS011;61071;51.618;19.388;2022-07-03T14:44:41;4.22;;;1.35;;
72926;SDS011;61071;51.618;19.388;2022-07-03T14:47:06;4.53;;;1.50;;
72926;SDS011;61071;51.618;19.388;2022-07-03T14:49:32;5.60;;;1.17;;
72926;SDS011;61071;51.618;19.388;2022-07-03T14:52:02;1.73;;;1.00;;
72926;SDS011;61071;51.618;19.388;2022-07-03T14:54:29;2.65;;;1.25;;
72926;SDS011;61071;51.618;19.388;2022-07-03T14:56:57;3.53;;;1.17;;
72926;SDS011;61071;51.618;19.388;2022-07-03T15:02:42;1.88;;;1.15;;
72926;SDS011;61071;51.618;19.388;2022-07-03T15:05:09;3.85;;;1.35;;
72926;SDS011;61071;51.618;19.388;2022-07-03T15:07:38;2.15;;;1.35;;
72926;SDS011;61071;51.618;19.388;2022-07-03T15:10:14;2.00;;;1.20;;
72926;SDS011;61071;51.618;19.388;2022-07-03T15:12:41;2.00;;;1.08;;
72926;SDS011;61071;51.618;19.388;2022-07-03T15:15:14;1.77;;;1.10;;
72926;SDS011;61071;51.618;19.388;2022-07-03T15:17:42;4.50;;;1.50;;
72926;SDS011;61071;51.618;19.388;2022-07-03T15:20:11;1.98;;;1.02;;
72926;SDS011;61071;51.618;19.388;2022-07-03T15:22:43;3.05;;;1.20;;
72926;SDS011;61071;51.618;19.388;2022-07-03T15:25:12;6.03;;;1.63;;
72926;SDS011;61071;51.618;19.388;2022-07-03T15:27:42;1.55;;;1.15;;
72926;SDS011;61071;51.618;19.388;2022-07-03T15:30:20;1.95;;;1.23;;
72926;SDS011;61071;51.618;19.388;2022-07-03T15:32:46;1.42;;;1.10;;
72926;SDS011;61071;51.618;19.388;2022-07-03T15:35:14;7.55;;;4.50;;
72926;SDS011;61071;51.618;19.388;2022-07-03T15:37:44;2.63;;;1.23;;
72926;SDS011;61071;51.618;19.388;2022-07-03T15:40:19;1.38;;;1.10;;
72926;SDS011;61071;51.618;19.388;2022-07-03T15:46:32;3.20;;;1.10;;
72926;SDS011;61071;51.618;19.388;2022-07-03T15:57:33;1.20;;;0.98;;
72926;SDS011;61071;51.618;19.388;2022-07-03T16:00:10;3.58;;;1.33;;
72926;SDS011;61071;51.618;19.388;2022-07-03T16:02:56;3.65;;;1.33;;
72926;SDS011;61071;51.618;19.388;2022-07-03T16:05:40;1.35;;;1.10;;
72926;SDS011;61071;51.618;19.388;2022-07-03T16:08:08;3.88;;;1.38;;
72926;SDS011;61071;51.618;19.388;2022-07-03T16:10:38;7.13;;;1.20;;
72926;SDS011;61071;51.618;19.388;2022-07-03T16:13:07;2.17;;;1.08;;
72926;SDS011;61071;51.618;19.388;2022-07-03T16:15:37;3.55;;;1.30;;
72926;SDS011;61071;51.618;19.388;2022-07-03T16:18:05;1.23;;;1.10;;
72926;SDS011;61071;51.618;19.388;2022-07-03T16:20:32;3.75;;;1.17;;